createdAt,value
2023-04-25T00:01:18.574Z,4.88
2023-04-25T00:04:20.482Z,7.28
2023-04-25T00:07:22.183Z,10.05
2023-04-25T00:10:23.966Z,6.70
2023-04-25T00:13:26.528Z,6.50
2023-04-25T00:16:28.179Z,7.20
2023-04-25T00:19:30.001Z,6.78
2023-04-25T00:22:32.382Z,8.27
2023-04-25T00:25:33.959Z,8.73
2023-04-25T00:28:35.896Z,7.45
2023-04-25T00:31:37.693Z,6.60
2023-04-25T00:34:39.310Z,9.63
2023-04-25T00:37:41.101Z,11.10
2023-04-25T00:40:44.670Z,6.95
2023-04-25T00:43:47.035Z,6.55
2023-04-25T00:46:50.594Z,8.55
2023-04-25T00:49:54.207Z,6.78
2023-04-25T00:55:57.913Z,8.00
2023-04-25T00:58:59.772Z,9.38
2023-04-25T01:02:01.858Z,8.40
2023-04-25T01:05:04.533Z,6.55
2023-04-25T01:08:06.121Z,8.67
2023-04-25T01:11:08.189Z,10.23
2023-04-25T01:14:10.016Z,9.73
2023-04-25T01:17:12.349Z,8.35
2023-04-25T01:20:15.071Z,7.70
2023-04-25T01:23:17.847Z,8.63
2023-04-25T01:26:19.711Z,8.52
2023-04-25T01:29:21.413Z,8.02
2023-04-25T01:32:24.518Z,8.07
2023-04-25T01:35:26.442Z,9.93
2023-04-25T01:38:31.020Z,12.07
2023-04-25T01:41:33.456Z,9.10
2023-04-25T01:44:35.231Z,7.83
2023-04-25T01:47:36.936Z,10.80
2023-04-25T01:50:39.831Z,10.27
2023-04-25T01:53:41.512Z,8.35
2023-04-25T01:56:43.756Z,10.57
2023-04-25T02:02:59.759Z,8.13
2023-04-25T02:06:05.976Z,8.18
2023-04-25T02:09:11.009Z,8.40
2023-04-25T02:12:18.505Z,8.38
2023-04-25T02:15:40.648Z,9.63
2023-04-25T02:18:50.244Z,9.40
2023-04-25T02:21:51.841Z,8.18
2023-04-25T02:24:54.914Z,10.10
2023-04-25T02:27:56.642Z,10.65
2023-04-25T02:30:58.647Z,9.10
2023-04-25T02:34:00.267Z,9.73
2023-04-25T02:37:02.918Z,11.07
2023-04-25T02:40:05.345Z,10.63
2023-04-25T02:43:08.042Z,12.70
2023-04-25T02:46:09.808Z,13.27
2023-04-25T02:49:11.370Z,10.30
2023-04-25T02:52:13.599Z,9.38
2023-04-25T02:55:15.588Z,9.10
2023-04-25T02:58:18.684Z,9.98
2023-04-25T03:01:25.982Z,8.27
2023-04-25T03:04:27.757Z,10.32
2023-04-25T03:07:30.358Z,12.13
2023-04-25T03:10:31.932Z,8.80
2023-04-25T03:13:38.535Z,10.02
2023-04-25T03:16:41.032Z,6.53
2023-04-25T03:19:42.672Z,7.78
2023-04-25T03:22:45.539Z,9.15
2023-04-25T03:25:47.424Z,11.38
2023-04-25T03:28:49.323Z,7.63
2023-04-25T03:31:51.332Z,7.47
2023-04-25T03:34:54.599Z,6.28
2023-04-25T03:37:56.284Z,10.20
2023-04-25T03:41:03.914Z,11.07
2023-04-25T03:44:25.486Z,7.22
2023-04-25T03:47:27.158Z,5.85
2023-04-25T03:50:29.773Z,8.35
2023-04-25T03:53:31.444Z,6.60
2023-04-25T03:57:08.216Z,6.88
2023-04-25T04:00:14.106Z,7.38
2023-04-25T04:03:15.930Z,6.23
2023-04-25T04:06:18.133Z,7.07
2023-04-25T04:09:24.160Z,4.90
2023-04-25T04:12:25.867Z,11.68
2023-04-25T04:15:27.575Z,5.80
2023-04-25T04:18:29.880Z,7.55
2023-04-25T04:21:32.941Z,7.68
2023-04-25T04:24:35.559Z,8.48
2023-04-25T04:27:41.598Z,10.68
2023-04-25T04:31:19.183Z,12.63
2023-04-25T04:34:21.317Z,10.30
2023-04-25T04:37:23.732Z,9.45
2023-04-25T04:40:26.570Z,10.23
2023-04-25T04:43:41.328Z,8.77
2023-04-25T04:46:51.531Z,5.38
2023-04-25T04:49:53.237Z,9.80
2023-04-25T04:53:13.662Z,9.57
2023-04-25T04:56:44.698Z,11.35
2023-04-25T05:00:11.536Z,10.65
2023-04-25T05:03:35.862Z,9.93
2023-04-25T05:06:48.983Z,15.18
2023-04-25T05:09:50.832Z,11.25
2023-04-25T05:13:18.204Z,9.55
2023-04-25T05:16:47.643Z,11.98
2023-04-25T05:20:10.442Z,12.23
2023-04-25T05:23:36.364Z,10.25
2023-04-25T05:26:58.385Z,10.77
2023-04-25T05:30:16.435Z,14.32
2023-04-25T05:33:40.201Z,11.73
2023-04-25T05:36:42.650Z,9.80
2023-04-25T05:39:44.272Z,10.68
2023-04-25T05:43:04.375Z,12.02
2023-04-25T05:46:24.632Z,14.77
2023-04-25T05:49:45.148Z,12.57
2023-04-25T05:53:08.436Z,12.20
2023-04-25T05:56:18.188Z,10.98
2023-04-25T05:59:21.817Z,13.52
2023-04-25T06:02:23.620Z,19.27
2023-04-25T06:05:26.334Z,13.17
2023-04-25T06:08:28.061Z,14.68
2023-04-25T06:11:29.714Z,12.93
2023-04-25T06:14:31.602Z,19.20
2023-04-25T06:17:34.897Z,11.15
2023-04-25T06:20:36.940Z,12.77
2023-04-25T06:23:38.608Z,15.32
2023-04-25T06:26:42.600Z,12.57
2023-04-25T06:29:44.864Z,11.50
2023-04-25T06:32:46.566Z,13.95
2023-04-25T06:35:48.938Z,13.50
2023-04-25T06:38:54.505Z,14.60
2023-04-25T06:41:56.306Z,15.15
2023-04-25T06:45:15.754Z,18.25
2023-04-25T06:48:17.682Z,10.07
2023-04-25T06:51:19.435Z,13.18
2023-04-25T06:54:21.715Z,11.10
2023-04-25T07:00:55.839Z,13.07
2023-04-25T07:03:59.873Z,11.73
2023-04-25T07:07:04.460Z,12.30
2023-04-25T07:10:13.439Z,11.82
2023-04-25T07:13:15.053Z,10.52
2023-04-25T07:16:17.557Z,14.38
2023-04-25T07:19:19.226Z,11.63
2023-04-25T07:22:21.258Z,12.60
2023-04-25T07:25:22.983Z,13.35
2023-04-25T07:28:25.074Z,11.43
2023-04-25T07:31:26.910Z,12.52
2023-04-25T07:34:28.719Z,10.98
2023-04-25T07:37:31.166Z,12.82
2023-04-25T07:40:38.769Z,11.45
2023-04-25T07:43:43.417Z,9.48
2023-04-25T07:46:47.883Z,9.57
2023-04-25T07:49:49.830Z,9.23
2023-04-25T07:52:51.912Z,8.00
2023-04-25T07:56:01.083Z,9.70
2023-04-25T07:59:06.594Z,9.90
2023-04-25T08:02:08.371Z,13.70
2023-04-25T08:05:12.945Z,12.93
2023-04-25T08:08:16.681Z,10.95
2023-04-25T08:11:18.629Z,12.35
2023-04-25T08:14:20.834Z,11.85
2023-04-25T08:17:23.775Z,14.07
2023-04-25T08:20:26.080Z,15.25
2023-04-25T08:23:30.081Z,7.63
2023-04-25T08:26:40.625Z,8.52
2023-04-25T08:29:43.975Z,10.73
2023-04-25T08:32:45.771Z,8.15
2023-04-25T08:36:02.253Z,4.65
2023-04-25T08:39:04.843Z,4.25
2023-04-25T08:42:13.143Z,14.75
2023-04-25T08:48:18.680Z,7.68
2023-04-25T08:51:26.008Z,6.25
2023-04-25T08:54:34.421Z,8.23
2023-04-25T08:57:40.540Z,13.23
2023-04-25T09:00:44.157Z,7.35
2023-04-25T09:03:48.197Z,4.43
2023-04-25T09:06:50.032Z,7.95
2023-04-25T09:09:51.668Z,6.30
2023-04-25T09:13:06.783Z,8.10
2023-04-25T09:16:22.801Z,5.72
2023-04-25T09:19:47.349Z,5.22
2023-04-25T09:23:04.260Z,5.68
2023-04-25T09:26:08.698Z,5.85
2023-04-25T09:29:10.473Z,5.68
2023-04-25T09:32:21.357Z,5.70
2023-04-25T09:35:29.828Z,3.22
2023-04-25T09:38:46.363Z,4.82
2023-04-25T09:42:18.177Z,5.80
2023-04-25T09:45:20.167Z,7.27
2023-04-25T09:48:23.183Z,3.67
2023-04-25T09:51:28.872Z,4.32
2023-04-25T09:54:33.587Z,3.75
2023-04-25T09:57:45.996Z,4.65
2023-04-25T10:00:48.567Z,6.30
2023-04-25T10:04:04.602Z,5.20
2023-04-25T10:07:16.401Z,4.38
2023-04-25T10:10:20.936Z,6.07
2023-04-25T10:13:23.960Z,5.90
2023-04-25T10:16:26.106Z,4.10
2023-04-25T10:19:28.768Z,4.78
2023-04-25T10:22:34.019Z,7.68
2023-04-25T10:25:38.898Z,7.30
2023-04-25T10:29:00.406Z,6.75
2023-04-25T10:32:02.068Z,3.90
2023-04-25T10:35:24.788Z,7.43
2023-04-25T10:38:27.240Z,4.00
2023-04-25T10:41:30.496Z,5.63
2023-04-25T10:47:37.949Z,4.65
2023-04-25T10:50:42.411Z,5.00
2023-04-25T10:53:55.817Z,3.42
2023-04-25T10:56:59.444Z,5.78
2023-04-25T11:00:07.474Z,9.18
2023-04-25T11:03:09.316Z,8.00
2023-04-25T11:06:32.714Z,6.10
2023-04-25T11:09:36.017Z,5.85
2023-04-25T11:15:39.420Z,5.13
2023-04-25T11:18:45.563Z,4.15
2023-04-25T11:21:47.192Z,4.13
2023-04-25T11:24:48.976Z,6.05
2023-04-25T11:27:51.241Z,5.38
2023-04-25T11:30:53.209Z,4.43
2023-04-25T11:33:56.054Z,6.50
2023-04-25T11:36:58.267Z,6.57
2023-04-25T11:39:59.916Z,7.35
2023-04-25T11:43:02.253Z,7.13
2023-04-25T11:46:08.380Z,6.35
2023-04-25T11:49:10.470Z,5.35
2023-04-25T11:52:12.181Z,6.25
2023-04-25T11:55:15.947Z,3.35
2023-04-25T11:58:17.619Z,6.47
2023-04-25T12:01:39.201Z,5.03
2023-04-25T12:04:42.549Z,6.28
2023-04-25T12:07:45.534Z,5.47
2023-04-25T12:10:47.939Z,7.50
2023-04-25T12:13:54.355Z,3.27
2023-04-25T12:16:58.817Z,4.95
2023-04-25T12:20:00.899Z,5.25
2023-04-25T12:23:08.350Z,4.60
2023-04-25T12:26:09.927Z,4.50
2023-04-25T12:29:27.789Z,4.43
2023-04-25T12:32:33.286Z,3.90
2023-04-25T12:35:34.930Z,4.75
2023-04-25T12:38:41.273Z,7.38
2023-04-25T12:41:42.998Z,5.47
2023-04-25T12:44:44.679Z,8.90
2023-04-25T12:47:47.014Z,3.63
2023-04-25T12:50:50.220Z,4.53
2023-04-25T12:56:54.175Z,4.05
2023-04-25T12:59:55.785Z,3.30
2023-04-25T13:02:57.532Z,3.92
2023-04-25T13:05:59.365Z,2.70
2023-04-25T13:09:01.386Z,2.78
2023-04-25T13:12:03.109Z,4.82
2023-04-25T13:15:05.347Z,7.68
2023-04-25T13:18:07.135Z,4.63
2023-04-25T13:21:11.958Z,5.80
2023-04-25T13:24:13.619Z,4.32
2023-04-25T13:27:15.226Z,6.88
2023-04-25T13:30:16.987Z,3.95
2023-04-25T13:33:19.311Z,2.55
2023-04-25T13:36:21.045Z,5.20
2023-04-25T13:39:23.301Z,4.90
2023-04-25T13:42:25.050Z,4.15
2023-04-25T13:45:27.207Z,3.50
2023-04-25T13:48:28.772Z,2.00
2023-04-25T13:51:32.587Z,3.03
2023-04-25T13:54:34.704Z,3.92
2023-04-25T13:57:38.264Z,3.88
2023-04-25T14:00:43.308Z,4.13
2023-04-25T14:03:46.432Z,3.33
2023-04-25T14:09:49.637Z,2.40
2023-04-25T14:12:51.219Z,4.10
2023-04-25T14:15:53.252Z,4.30
2023-04-25T14:18:55.540Z,2.75
2023-04-25T14:21:57.232Z,5.07
2023-04-25T14:24:59.159Z,4.43
2023-04-25T14:28:01.134Z,4.07
2023-04-25T14:31:02.778Z,5.15
2023-04-25T14:34:04.376Z,3.70
2023-04-25T14:37:06.121Z,4.07
2023-04-25T14:40:11.668Z,4.38
2023-04-25T14:43:13.425Z,4.05
2023-04-25T14:46:15.646Z,2.92
2023-04-25T14:49:20.077Z,4.20
2023-04-25T14:52:22.075Z,2.67
2023-04-25T14:55:23.921Z,6.15
2023-04-25T14:58:25.523Z,4.00
2023-04-25T15:01:27.835Z,5.60
2023-04-25T15:04:29.758Z,2.33
2023-04-25T15:07:32.140Z,7.33
2023-04-25T15:10:33.806Z,3.85
2023-04-25T15:13:35.892Z,3.45
2023-04-25T15:16:37.534Z,3.15
2023-04-25T15:19:39.172Z,4.40
2023-04-25T15:22:42.190Z,6.43
2023-04-25T15:25:43.846Z,5.05
2023-04-25T15:28:45.445Z,2.95
2023-04-25T15:31:47.292Z,4.65
2023-04-25T15:34:49.056Z,4.28
2023-04-25T15:37:51.553Z,5.65
2023-04-25T15:40:53.161Z,1.70
2023-04-25T15:43:54.933Z,2.80
2023-04-25T15:46:56.627Z,3.20
2023-04-25T15:49:58.387Z,4.10
2023-04-25T15:53:00.518Z,4.88
2023-04-25T15:56:02.178Z,2.55
2023-04-25T15:59:03.964Z,3.03
2023-04-25T16:02:05.803Z,3.15
2023-04-25T16:05:09.007Z,7.47
2023-04-25T16:11:14.689Z,4.95
2023-04-25T16:14:16.358Z,2.58
2023-04-25T16:17:17.921Z,3.97
2023-04-25T16:20:19.496Z,2.35
2023-04-25T16:23:21.128Z,4.03
2023-04-25T16:26:22.749Z,2.78
2023-04-25T16:29:24.321Z,4.60
2023-04-25T16:32:26.121Z,3.65
2023-04-25T16:35:30.508Z,2.20
2023-04-25T16:38:32.127Z,3.63
2023-04-25T16:41:34.177Z,3.10
2023-04-25T16:44:35.851Z,2.35
2023-04-25T16:47:37.470Z,2.67
2023-04-25T16:50:39.108Z,2.78
2023-04-25T16:53:41.490Z,2.45
2023-04-25T16:56:43.263Z,1.70
2023-04-25T16:59:44.930Z,4.45
2023-04-25T17:02:47.277Z,4.75
2023-04-25T17:05:56.596Z,3.33
2023-04-25T17:08:58.285Z,2.17
2023-04-25T17:12:02.736Z,2.70
2023-04-25T17:15:05.590Z,2.67
2023-04-25T17:18:08.962Z,2.85
2023-04-25T17:21:11.430Z,2.95
2023-04-25T17:24:16.784Z,3.43
2023-04-25T17:27:18.825Z,1.58
2023-04-25T17:30:24.226Z,2.85
2023-04-25T17:33:27.114Z,2.42
2023-04-25T17:36:29.143Z,3.45
2023-04-25T17:39:30.677Z,8.70
2023-04-25T17:42:32.354Z,3.88
2023-04-25T17:45:34.854Z,3.17
2023-04-25T17:48:36.448Z,6.27
2023-04-25T17:51:38.145Z,3.05
2023-04-25T17:54:39.861Z,4.55
2023-04-25T17:57:41.600Z,2.85
2023-04-25T18:00:43.862Z,3.42
2023-04-25T18:03:48.981Z,5.03
2023-04-25T18:06:51.558Z,2.53
2023-04-25T18:09:53.174Z,3.35
2023-04-25T18:12:55.204Z,1.60
2023-04-25T18:15:57.078Z,3.85
2023-04-25T18:19:05.273Z,2.05
2023-04-25T18:22:06.930Z,4.20
2023-04-25T18:25:13.626Z,2.35
2023-04-25T18:28:15.268Z,7.68
2023-04-25T18:31:17.358Z,3.50
2023-04-25T18:34:20.637Z,1.67
2023-04-25T18:37:22.325Z,3.83
2023-04-25T18:40:24.075Z,4.43
2023-04-25T18:43:25.670Z,1.45
2023-04-25T18:46:27.338Z,3.10
2023-04-25T18:49:28.912Z,3.45
2023-04-25T18:52:30.498Z,2.25
2023-04-25T18:55:32.104Z,5.40
2023-04-25T18:58:33.928Z,3.00
2023-04-25T19:01:35.722Z,3.38
2023-04-25T19:04:37.794Z,4.50
2023-04-25T19:07:40.535Z,6.80
2023-04-25T19:10:42.109Z,1.58
2023-04-25T19:13:43.672Z,2.17
2023-04-25T19:16:45.562Z,9.60
2023-04-25T19:19:47.712Z,2.40
2023-04-25T19:22:49.404Z,5.13
2023-04-25T19:25:50.946Z,2.65
2023-04-25T19:29:15.289Z,2.42
2023-04-25T19:32:16.900Z,4.90
2023-04-25T19:35:19.156Z,4.35
2023-04-25T19:38:20.757Z,3.80
2023-04-25T19:41:22.869Z,3.05
2023-04-25T19:44:24.609Z,3.28
2023-04-25T19:47:28.052Z,1.88
2023-04-25T19:50:30.599Z,2.55
2023-04-25T19:53:32.218Z,3.90
2023-04-25T19:56:33.906Z,2.30
2023-04-25T19:59:35.698Z,5.57
2023-04-25T20:02:37.880Z,5.03
2023-04-25T20:05:39.579Z,3.25
2023-04-25T20:08:41.386Z,4.10
2023-04-25T20:11:43.014Z,7.13
2023-04-25T20:14:45.040Z,3.45
2023-04-25T20:17:47.250Z,3.00
2023-04-25T20:20:48.832Z,3.55
2023-04-25T20:23:50.852Z,6.50
2023-04-25T20:26:52.470Z,3.28
2023-04-25T20:29:54.018Z,5.38
2023-04-25T20:32:56.554Z,2.45
2023-04-25T20:35:58.538Z,5.60
2023-04-25T20:39:00.145Z,3.70
2023-04-25T20:42:03.020Z,2.92
2023-04-25T20:45:10.783Z,4.15
2023-04-25T20:48:12.357Z,3.58
2023-04-25T20:51:14.211Z,4.00
2023-04-25T20:54:15.904Z,4.28
2023-04-25T20:57:17.734Z,5.32
2023-04-25T21:00:26.804Z,3.30
2023-04-25T21:03:29.429Z,7.55
2023-04-25T21:06:31.327Z,11.40
2023-04-25T21:09:32.910Z,12.02
2023-04-25T21:12:36.093Z,11.45
2023-04-25T21:15:38.020Z,8.48
2023-04-25T21:18:39.907Z,5.22
2023-04-25T21:21:41.630Z,4.72
2023-04-25T21:24:43.578Z,4.85
2023-04-25T21:27:47.657Z,5.53
2023-04-25T21:30:49.386Z,6.60
2023-04-25T21:33:51.020Z,5.60
2023-04-25T21:36:52.611Z,4.45
2023-04-25T21:39:54.409Z,3.67
2023-04-25T21:42:56.832Z,4.38
2023-04-25T21:46:21.338Z,3.73
2023-04-25T21:49:23.326Z,4.15
2023-04-25T21:52:25.332Z,4.53
2023-04-25T21:55:27.202Z,6.65
2023-04-25T21:58:28.795Z,8.70
2023-04-25T22:01:30.432Z,5.50
2023-04-25T22:04:32.107Z,10.25
2023-04-25T22:07:33.799Z,2.60
2023-04-25T22:10:35.487Z,3.00
2023-04-25T22:13:37.134Z,6.43
2023-04-25T22:16:38.960Z,4.82
2023-04-25T22:19:40.630Z,7.55
2023-04-25T22:22:42.522Z,6.22
2023-04-25T22:25:44.117Z,3.10
2023-04-25T22:28:46.321Z,3.35
2023-04-25T22:31:48.425Z,4.50
2023-04-25T22:34:50.002Z,7.20
2023-04-25T22:37:51.570Z,3.60
2023-04-25T22:40:53.139Z,3.85
2023-04-25T22:43:55.313Z,3.35
2023-04-25T22:46:56.864Z,4.40
2023-04-25T22:50:00.314Z,4.57
2023-04-25T22:53:03.996Z,6.03
2023-04-25T22:56:10.045Z,5.78
2023-04-25T22:59:11.668Z,4.95
2023-04-25T23:02:13.527Z,7.60
2023-04-25T23:05:15.450Z,4.60
2023-04-25T23:08:17.261Z,6.95
2023-04-25T23:11:20.356Z,6.03
2023-04-25T23:14:21.927Z,7.57
2023-04-25T23:17:23.512Z,6.95
2023-04-25T23:20:25.196Z,5.72
2023-04-25T23:23:26.805Z,8.00
2023-04-25T23:26:28.529Z,6.90
2023-04-25T23:29:31.513Z,5.57
2023-04-25T23:32:33.306Z,4.95
2023-04-25T23:35:37.792Z,7.80
2023-04-25T23:38:39.388Z,6.03
2023-04-25T23:41:41.026Z,6.82
2023-04-25T23:44:42.851Z,6.13
2023-04-25T23:47:44.940Z,5.80
2023-04-25T23:50:46.738Z,9.50
2023-04-25T23:53:48.325Z,5.40
2023-04-25T23:56:49.878Z,4.95
2023-04-25T23:59:51.521Z,6.32
